Time;durP1;ratioP1;P1;durP2;ratioP2;P2;SDS_P1;SDS_P2;PMS_P1;PMS_P2;Temp;Humidity;BMP_temperature;BMP_pressure;BME280_temperature;BME280_humidity;BME280_pressure;Samples;Min_cycle;Max_cycle;Signal;HPM_P1;HPM_P2
2023/12/07 00:01:57;;;;;;;4.93;3.23;;;16.20;75.20;;;;;;4996207;28;20279;-91
2023/12/07 00:04:22;;;;;;;4.83;3.30;;;16.30;75.10;;;;;;4979958;28;20184;-91
2023/12/07 00:06:48;;;;;;;3.07;2.77;;;16.30;74.80;;;;;;4986103;28;20165;-91
2023/12/07 00:09:14;;;;;;;3.60;2.80;;;16.30;74.80;;;;;;4979080;28;20216;-92
2023/12/07 00:11:40;;;;;;;3.17;2.80;;;16.30;74.80;;;;;;4984562;28;20541;-92
2023/12/07 00:14:06;;;;;;;3.33;3.00;;;16.30;74.90;;;;;;4982247;28;20182;-92
2023/12/07 00:16:31;;;;;;;3.57;2.97;;;16.30;74.90;;;;;;4980980;28;20172;-92
2023/12/07 00:18:57;;;;;;;3.83;2.93;;;16.20;74.90;;;;;;4973667;28;20179;-92
2023/12/07 00:21:23;;;;;;;3.10;2.77;;;16.30;74.80;;;;;;4996239;28;20215;-92
2023/12/07 00:23:49;;;;;;;3.40;2.90;;;16.30;74.80;;;;;;4988019;28;20169;-91
2023/12/07 00:26:15;;;;;;;4.43;3.00;;;16.20;74.80;;;;;;4978094;28;20408;-92
2023/12/07 00:28:41;;;;;;;3.73;3.17;;;16.30;74.70;;;;;;4984882;28;20233;-92
2023/12/07 00:31:08;;;;;;;3.87;3.30;;;16.20;74.80;;;;;;4995517;28;20198;-91
2023/12/07 00:33:33;;;;;;;3.50;3.20;;;16.30;74.70;;;;;;4996059;28;20191;-91
2023/12/07 00:35:59;;;;;;;3.43;3.13;;;16.20;74.70;;;;;;4997360;28;20185;-91
2023/12/07 00:38:25;;;;;;;3.50;2.90;;;16.20;74.60;;;;;;4980747;28;20176;-91
2023/12/07 00:40:51;;;;;;;3.50;3.10;;;16.30;74.50;;;;;;4993971;28;20349;-91
2023/12/07 00:43:17;;;;;;;4.43;3.10;;;16.20;74.50;;;;;;4993055;28;20538;-91
2023/12/07 00:45:43;;;;;;;5.07;3.40;;;16.30;74.60;;;;;;4991014;28;20239;-91
2023/12/07 00:48:08;;;;;;;4.27;3.37;;;16.20;74.50;;;;;;4983751;28;20167;-91
2023/12/07 00:50:34;;;;;;;4.77;3.80;;;16.30;74.50;;;;;;4991491;28;20577;-91
2023/12/07 00:53:00;;;;;;;3.73;2.83;;;16.30;75.10;;;;;;4986361;28;20183;-92
2023/12/07 00:55:25;;;;;;;4.30;3.50;;;16.20;74.50;;;;;;4988906;28;20237;-91
2023/12/07 00:57:51;;;;;;;4.03;3.13;;;16.30;74.40;;;;;;4992049;28;20299;-91
2023/12/07 01:00:17;;;;;;;4.33;3.30;;;16.30;74.40;;;;;;4982514;28;20515;-91
2023/12/07 01:02:43;;;;;;;4.13;3.63;;;16.30;74.40;;;;;;4977376;28;20278;-92
2023/12/07 01:05:08;;;;;;;4.30;3.43;;;16.20;74.40;;;;;;4986063;28;20183;-91
2023/12/07 01:07:34;;;;;;;3.50;3.20;;;16.20;74.40;;;;;;4977071;28;20170;-91
2023/12/07 01:10:00;;;;;;;3.73;3.43;;;16.20;74.40;;;;;;4983231;28;20174;-91
2023/12/07 01:12:26;;;;;;;3.50;3.13;;;16.20;74.40;;;;;;4993731;28;20174;-92
2023/12/07 01:14:52;;;;;;;4.57;3.77;;;16.20;74.50;;;;;;4983112;28;20175;-92
2023/12/07 01:17:18;;;;;;;4.47;3.40;;;16.20;74.30;;;;;;4994438;28;20246;-91
2023/12/07 01:19:44;;;;;;;4.63;3.40;;;16.30;74.20;;;;;;4981861;28;20620;-92
2023/12/07 01:22:10;;;;;;;4.67;3.30;;;16.30;74.30;;;;;;4993975;28;20179;-92
2023/12/07 01:24:36;;;;;;;3.87;3.47;;;16.30;74.20;;;;;;4979952;28;20175;-92
2023/12/07 01:27:02;;;;;;;4.17;3.60;;;16.30;74.00;;;;;;4992092;28;20182;-92
2023/12/07 01:29:27;;;;;;;4.37;3.43;;;16.40;73.90;;;;;;4982361;28;20226;-91
2023/12/07 01:31:53;;;;;;;3.97;3.30;;;16.40;73.80;;;;;;4988427;28;20429;-91
2023/12/07 01:34:19;;;;;;;3.80;3.40;;;16.30;73.80;;;;;;4984135;28;20636;-91
2023/12/07 01:36:45;;;;;;;3.60;3.30;;;16.30;73.90;;;;;;4985123;28;20171;-91
2023/12/07 01:39:12;;;;;;;3.67;3.33;;;16.30;73.90;;;;;;4985035;28;20171;-92
2023/12/07 01:41:39;;;;;;;4.87;3.57;;;16.30;73.90;;;;;;4982131;28;20202;-91
2023/12/07 01:44:05;;;;;;;4.00;3.60;;;16.30;73.60;;;;;;4988624;28;20179;-91
2023/12/07 01:46:33;;;;;;;4.23;3.47;;;16.40;73.50;;;;;;4980959;28;20197;-91
2023/12/07 01:48:59;;;;;;;4.40;3.97;;;16.40;73.30;;;;;;4990134;28;20169;-91
2023/12/07 01:51:26;;;;;;;3.93;3.53;;;16.40;73.10;;;;;;4980787;28;20177;-91
2023/12/07 01:53:52;;;;;;;4.17;3.73;;;16.40;73.00;;;;;;4993231;28;20177;-91
2023/12/07 01:56:18;;;;;;;3.80;3.40;;;16.40;73.10;;;;;;4989187;28;20179;-91
2023/12/07 01:58:44;;;;;;;4.07;3.67;;;16.40;73.80;;;;;;4974991;28;20183;-91
2023/12/07 02:01:11;;;;;;;4.03;3.50;;;16.40;73.30;;;;;;4987804;28;20209;-91
2023/12/07 02:03:40;;;;;;;4.50;4.10;;;16.40;73.20;;;;;;4974808;28;20320;-91
2023/12/07 02:06:06;;;;;;;3.77;3.47;;;16.40;73.10;;;;;;4986122;28;20175;-92
2023/12/07 02:08:32;;;;;;;4.37;3.80;;;16.40;73.00;;;;;;4974704;28;20183;-92
2023/12/07 02:10:58;;;;;;;4.07;3.63;;;16.40;72.90;;;;;;4982210;28;20174;-91
2023/12/07 02:13:24;;;;;;;4.40;3.57;;;16.40;73.00;;;;;;4974940;28;20176;-91
2023/12/07 02:15:50;;;;;;;4.87;3.93;;;16.40;73.10;;;;;;4978714;28;20184;-91
2023/12/07 02:18:28;;;;;;;4.93;3.53;;;16.40;73.10;;;;;;4976254;28;20270;-91
2023/12/07 02:21:12;;;;;;;4.23;3.60;;;16.30;73.20;;;;;;4978393;28;20367;-91
2023/12/07 02:23:41;;;;;;;4.67;3.70;;;16.30;73.30;;;;;;4974763;28;20167;-91
2023/12/07 02:26:28;;;;;;;3.80;3.40;;;16.30;73.50;;;;;;4978616;28;20177;-91
2023/12/07 02:28:54;;;;;;;4.07;3.67;;;16.20;73.70;;;;;;4974789;28;20171;-91
2023/12/07 02:31:20;;;;;;;3.90;3.40;;;16.20;73.80;;;;;;4981029;28;20235;-91
2023/12/07 02:33:46;;;;;;;4.57;3.87;;;16.20;73.70;;;;;;4979050;28;20193;-91
2023/12/07 02:36:14;;;;;;;4.53;3.90;;;16.20;73.70;;;;;;4979064;28;20174;-91
2023/12/07 02:38:41;;;;;;;3.70;3.33;;;16.20;73.70;;;;;;4988054;28;20183;-91
2023/12/07 02:41:08;;;;;;;3.73;3.40;;;16.20;73.90;;;;;;4988813;28;20235;-91
2023/12/07 02:43:34;;;;;;;4.20;3.80;;;16.20;74.00;;;;;;4994935;28;20279;-90
2023/12/07 02:45:59;;;;;;;4.70;3.90;;;16.20;74.00;;;;;;4986562;28;20200;-91
2023/12/07 02:48:26;;;;;;;3.80;3.40;;;16.20;74.70;;;;;;4997164;28;20210;-91
2023/12/07 02:50:52;;;;;;;3.93;3.33;;;16.20;73.90;;;;;;4984564;28;20250;-91
2023/12/07 02:53:18;;;;;;;5.60;3.80;;;16.20;73.80;;;;;;4988813;28;20214;-92
2023/12/07 02:55:43;;;;;;;4.40;3.67;;;16.20;73.60;;;;;;4976122;28;20199;-91
2023/12/07 02:58:09;;;;;;;4.03;3.63;;;16.20;73.70;;;;;;4986952;28;20221;-92
2023/12/07 03:00:35;;;;;;;4.07;3.67;;;16.20;73.80;;;;;;4975870;28;20205;-91
2023/12/07 03:03:01;;;;;;;3.77;3.30;;;16.20;73.70;;;;;;4990526;28;20173;-91
2023/12/07 03:05:26;;;;;;;4.30;3.70;;;16.20;73.70;;;;;;4978558;28;20203;-91
2023/12/07 03:07:52;;;;;;;4.77;3.70;;;16.20;73.60;;;;;;4988378;28;20206;-91
2023/12/07 03:10:18;;;;;;;4.27;3.63;;;16.20;73.70;;;;;;4980091;28;20197;-91
2023/12/07 03:12:44;;;;;;;4.50;4.00;;;16.20;73.50;;;;;;4986309;28;20273;-91
2023/12/07 03:15:10;;;;;;;4.17;3.67;;;16.30;73.20;;;;;;4982918;28;20175;-91
2023/12/07 03:17:36;;;;;;;5.00;3.93;;;16.30;73.20;;;;;;4982288;28;20267;-91
2023/12/07 03:20:03;;;;;;;4.77;3.73;;;16.30;73.10;;;;;;4984070;28;20325;-91
2023/12/07 03:22:29;;;;;;;4.33;3.73;;;16.30;73.10;;;;;;4980132;28;20719;-92
2023/12/07 03:24:56;;;;;;;4.27;3.80;;;16.30;72.80;;;;;;4985807;28;20206;-92
2023/12/07 03:27:22;;;;;;;4.53;4.07;;;16.30;72.70;;;;;;4977918;28;20443;-91
2023/12/07 03:29:47;;;;;;;4.80;3.50;;;16.30;72.70;;;;;;4988269;28;20274;-91
2023/12/07 03:32:13;;;;;;;3.63;3.33;;;16.30;72.50;;;;;;4978849;28;20196;-91
2023/12/07 03:34:39;;;;;;;4.00;3.60;;;16.30;72.50;;;;;;4988418;28;20621;-91
2023/12/07 03:37:05;;;;;;;3.80;3.40;;;16.30;72.40;;;;;;4977410;28;20278;-91
2023/12/07 03:39:32;;;;;;;4.87;4.00;;;16.40;72.40;;;;;;4989890;28;20206;-92
2023/12/07 03:41:58;;;;;;;5.57;3.87;;;16.40;72.10;;;;;;4978678;28;20562;-91
2023/12/07 03:44:26;;;;;;;4.70;3.80;;;16.40;71.70;;;;;;4990026;28;20229;-91
2023/12/07 03:46:52;;;;;;;4.10;3.70;;;16.50;71.40;;;;;;4977865;28;20511;-91
2023/12/07 03:49:18;;;;;;;4.37;3.80;;;16.50;71.30;;;;;;4987608;28;20237;-92
2023/12/07 03:51:44;;;;;;;4.20;3.80;;;16.50;71.20;;;;;;4978361;28;20180;-91
2023/12/07 03:54:09;;;;;;;4.97;3.73;;;16.50;71.20;;;;;;4985253;28;20184;-91
2023/12/07 03:56:35;;;;;;;4.10;3.70;;;16.50;71.20;;;;;;4981550;28;20167;-91
2023/12/07 03:59:01;;;;;;;4.00;3.47;;;16.50;71.10;;;;;;4981920;28;20172;-91
2023/12/07 04:01:29;;;;;;;5.30;3.50;;;16.50;71.10;;;;;;4994584;28;20214;-91
2023/12/07 04:03:56;;;;;;;4.03;3.40;;;16.50;71.00;;;;;;4991641;28;20198;-91
2023/12/07 04:06:28;;;;;;;4.17;3.77;;;16.50;71.00;;;;;;4985988;28;20184;-91
2023/12/07 04:08:53;;;;;;;4.27;3.70;;;16.30;71.30;;;;;;4991213;28;20196;-91
2023/12/07 04:11:19;;;;;;;4.27;3.57;;;16.20;72.00;;;;;;4985668;28;20463;-91
2023/12/07 04:13:46;;;;;;;3.80;3.47;;;16.00;72.80;;;;;;4977340;28;20236;-91
2023/12/07 04:16:11;;;;;;;4.03;3.63;;;15.80;73.80;;;;;;4985922;28;20266;-92
2023/12/07 04:18:37;;;;;;;4.23;3.40;;;15.70;74.80;;;;;;4974574;28;20315;-91
2023/12/07 04:21:05;;;;;;;5.17;4.00;;;15.50;75.80;;;;;;4983190;28;20203;-91
2023/12/07 04:23:31;;;;;;;4.07;3.50;;;15.40;76.70;;;;;;4994639;28;20190;-92
2023/12/07 04:25:59;;;;;;;4.53;3.70;;;15.30;77.40;;;;;;4982675;28;20172;-91
2023/12/07 04:28:25;;;;;;;4.17;3.57;;;15.20;78.20;;;;;;4994506;28;20556;-92
2023/12/07 04:30:51;;;;;;;3.87;3.47;;;15.10;79.10;;;;;;4981708;28;20274;-91
2023/12/07 04:33:16;;;;;;;4.60;3.73;;;15.00;79.80;;;;;;4993812;28;20425;-91
2023/12/07 04:35:42;;;;;;;4.13;3.70;;;15.30;79.80;;;;;;4983743;28;20174;-91
2023/12/07 04:38:08;;;;;;;5.03;3.87;;;16.00;76.70;;;;;;4991263;28;20517;-91
2023/12/07 04:40:33;;;;;;;3.93;3.43;;;16.70;72.90;;;;;;4985892;28;20452;-91
2023/12/07 04:42:59;;;;;;;4.47;3.60;;;17.70;67.90;;;;;;4988779;28;20173;-91
2023/12/07 04:45:25;;;;;;;4.57;3.53;;;18.20;64.50;;;;;;4989254;28;20171;-91
2023/12/07 04:47:56;;;;;;;3.67;3.20;;;18.70;61.70;;;;;;4986154;28;20455;-91
2023/12/07 04:50:22;;;;;;;4.63;3.30;;;19.30;59.30;;;;;;4990494;28;20337;-91
2023/12/07 04:52:48;;;;;;;4.53;3.60;;;19.80;58.00;;;;;;4984953;28;20451;-91
2023/12/07 04:55:15;;;;;;;3.40;3.10;;;20.10;57.10;;;;;;4993057;28;20272;-92
2023/12/07 04:57:41;;;;;;;4.20;3.80;;;19.90;56.90;;;;;;4983043;28;20174;-91
2023/12/07 05:00:09;;;;;;;4.30;3.40;;;19.80;56.70;;;;;;4990716;28;20272;-91
2023/12/07 05:02:36;;;;;;;3.73;3.40;;;19.50;57.10;;;;;;4982010;28;20485;-91
2023/12/07 05:05:02;;;;;;;3.97;3.57;;;19.10;57.60;;;;;;4993544;28;20183;-92
2023/12/07 05:07:27;;;;;;;3.83;3.43;;;18.80;58.40;;;;;;4979429;28;20170;-91
2023/12/07 05:09:53;;;;;;;3.60;3.17;;;18.60;58.90;;;;;;4992005;28;20530;-91
2023/12/07 05:12:19;;;;;;;3.97;3.37;;;18.30;59.50;;;;;;4978458;28;20242;-92
2023/12/07 05:14:45;;;;;;;4.90;3.70;;;17.90;60.40;;;;;;4988741;28;20189;-91
2023/12/07 05:17:11;;;;;;;3.67;3.20;;;17.60;61.90;;;;;;4984804;28;20180;-91
2023/12/07 05:19:36;;;;;;;5.13;3.40;;;17.30;63.20;;;;;;4970432;28;20190;-91
2023/12/07 05:22:02;;;;;;;4.17;3.40;;;17.10;64.60;;;;;;4977207;28;20177;-91
2023/12/07 05:24:30;;;;;;;3.87;3.40;;;16.80;66.00;;;;;;4974617;28;20551;-91
2023/12/07 05:26:56;;;;;;;3.90;3.33;;;16.50;67.50;;;;;;4974501;28;20178;-91
2023/12/07 05:29:21;;;;;;;3.90;3.37;;;16.30;68.80;;;;;;4976995;28;20183;-91
2023/12/07 05:31:50;;;;;;;3.93;3.53;;;16.20;70.00;;;;;;4972347;28;20237;-91
2023/12/07 05:34:17;;;;;;;3.87;3.43;;;16.00;71.10;;;;;;4977646;28;20224;-91
2023/12/07 05:36:43;;;;;;;3.67;3.33;;;15.80;72.10;;;;;;4971698;28;20182;-91
2023/12/07 05:39:11;;;;;;;3.73;3.30;;;15.80;73.10;;;;;;4980963;28;20443;-91
2023/12/07 05:41:37;;;;;;;4.73;3.43;;;15.60;73.90;;;;;;4969797;28;20354;-92
2023/12/07 05:44:03;;;;;;;4.97;3.30;;;15.60;74.60;;;;;;4980519;28;20230;-92
2023/12/07 05:46:29;;;;;;;4.47;3.23;;;15.50;75.30;;;;;;4968421;28;20181;-91
2023/12/07 05:48:55;;;;;;;4.40;3.30;;;15.40;75.80;;;;;;4980979;28;20196;-91
2023/12/07 05:51:23;;;;;;;4.00;3.17;;;15.30;76.60;;;;;;4966675;28;20341;-91
2023/12/07 05:53:49;;;;;;;3.60;3.10;;;15.30;77.10;;;;;;4977308;28;20245;-91
2023/12/07 05:56:20;;;;;;;3.67;3.37;;;15.20;77.90;;;;;;4964391;28;20176;-91
2023/12/07 05:58:46;;;;;;;3.80;3.17;;;15.10;78.60;;;;;;4969786;28;20297;-91
2023/12/07 06:01:12;;;;;;;4.47;3.20;;;15.20;78.90;;;;;;4987342;28;20208;-91
2023/12/07 06:03:38;;;;;;;3.70;3.27;;;15.70;77.00;;;;;;4976501;28;20515;-91
2023/12/07 06:06:05;;;;;;;3.97;3.00;;;16.20;74.30;;;;;;4981966;28;20415;-91
2023/12/07 06:08:30;;;;;;;4.57;3.20;;;16.70;71.30;;;;;;4978621;28;20180;-91
2023/12/07 06:10:56;;;;;;;3.87;3.20;;;17.30;68.20;;;;;;4966786;28;20181;-91
2023/12/07 06:13:22;;;;;;;3.87;3.40;;;17.90;65.20;;;;;;4984995;28;20179;-90
2023/12/07 06:15:47;;;;;;;4.40;3.10;;;18.20;63.00;;;;;;4982314;28;20184;-91
2023/12/07 06:18:13;;;;;;;3.77;2.93;;;18.80;60.50;;;;;;4983855;28;20467;-91
2023/12/07 06:20:39;;;;;;;3.10;2.80;;;18.90;59.50;;;;;;4979089;28;20280;-91
2023/12/07 06:23:06;;;;;;;3.30;2.90;;;18.90;59.20;;;;;;4969050;28;20287;-90
2023/12/07 06:25:32;;;;;;;3.77;3.07;;;18.90;59.00;;;;;;4979134;28;20417;-90
2023/12/07 06:27:58;;;;;;;3.97;3.10;;;18.80;59.00;;;;;;4969272;28;20177;-91
2023/12/07 06:30:24;;;;;;;3.87;2.80;;;18.70;59.20;;;;;;4978480;28;20177;-90
2023/12/07 06:32:50;;;;;;;3.20;2.90;;;18.30;59.80;;;;;;4967808;28;20360;-91
2023/12/07 06:35:16;;;;;;;3.40;2.67;;;18.00;60.70;;;;;;4979538;28;20189;-91
2023/12/07 06:37:41;;;;;;;3.53;2.70;;;17.80;61.80;;;;;;4971553;28;20457;-90
2023/12/07 06:40:09;;;;;;;3.50;2.70;;;17.50;63.00;;;;;;4976020;28;20198;-90
2023/12/07 06:42:36;;;;;;;4.83;3.07;;;17.20;64.30;;;;;;4986097;28;20173;-90
2023/12/07 06:45:02;;;;;;;3.03;2.70;;;16.90;66.00;;;;;;4975823;28;20167;-91
2023/12/07 06:47:28;;;;;;;4.03;2.93;;;16.70;67.50;;;;;;4983175;28;20331;-90
2023/12/07 06:49:55;;;;;;;4.10;2.77;;;16.40;68.80;;;;;;4986327;28;20186;-90
2023/12/07 06:52:21;;;;;;;3.27;2.97;;;16.30;70.10;;;;;;4985562;28;20185;-90
2023/12/07 06:54:48;;;;;;;3.40;2.90;;;16.10;71.40;;;;;;4982325;28;20386;-90
2023/12/07 06:57:14;;;;;;;4.23;3.03;;;16.00;72.30;;;;;;4977118;28;20185;-90
2023/12/07 06:59:40;;;;;;;5.50;3.10;;;15.80;73.30;;;;;;4982562;28;20306;-90
2023/12/07 07:02:06;;;;;;;3.60;3.20;;;15.70;74.00;;;;;;4976142;28;20194;-90
2023/12/07 07:04:32;;;;;;;4.73;2.93;;;15.70;74.80;;;;;;4985402;28;20245;-90
2023/12/07 07:06:58;;;;;;;3.40;2.93;;;15.60;75.60;;;;;;4966210;28;20339;-90
2023/12/07 07:09:24;;;;;;;4.57;3.43;;;15.50;76.10;;;;;;4967223;28;20282;-90
2023/12/07 07:11:51;;;;;;;4.20;3.30;;;15.40;76.80;;;;;;4976763;28;20535;-90
2023/12/07 07:14:17;;;;;;;4.77;3.23;;;15.30;77.40;;;;;;4965730;28;20270;-90
2023/12/07 07:16:42;;;;;;;4.07;3.20;;;15.30;78.20;;;;;;4979253;28;20334;-90
2023/12/07 07:19:09;;;;;;;4.23;3.67;;;15.20;79.00;;;;;;4968044;28;20280;-90
2023/12/07 07:21:36;;;;;;;5.13;3.33;;;15.10;79.50;;;;;;4979213;28;20219;-90
2023/12/07 07:24:02;;;;;;;7.40;3.43;;;15.00;80.20;;;;;;4968036;28;20244;-90
2023/12/07 07:26:27;;;;;;;6.30;3.63;;;14.90;80.90;;;;;;4975853;28;20176;-90
2023/12/07 07:28:53;;;;;;;5.47;3.70;;;14.80;81.50;;;;;;4968838;28;20355;-90
2023/12/07 07:31:19;;;;;;;4.53;3.73;;;14.70;82.20;;;;;;4976598;28;20183;-90
2023/12/07 07:33:47;;;;;;;8.70;3.90;;;14.70;83.20;;;;;;4971009;28;20196;-90
2023/12/07 07:36:14;;;;;;;5.03;3.83;;;15.40;81.10;;;;;;4968711;28;20550;-90
2023/12/07 07:38:40;;;;;;;6.03;3.87;;;15.90;77.80;;;;;;4972744;28;20177;-90
2023/12/07 07:41:06;;;;;;;6.90;4.17;;;16.40;74.70;;;;;;4967265;28;20204;-90
2023/12/07 07:43:34;;;;;;;3.87;3.47;;;16.90;72.00;;;;;;4974167;28;20200;-90
2023/12/07 07:46:00;;;;;;;6.07;3.50;;;17.40;68.50;;;;;;4964453;28;20195;-90
2023/12/07 07:48:26;;;;;;;6.73;3.70;;;18.00;65.40;;;;;;4975325;28;20185;-90
2023/12/07 07:50:52;;;;;;;4.90;3.97;;;18.60;62.10;;;;;;4964322;28;20461;-90
2023/12/07 07:53:18;;;;;;;5.63;3.47;;;19.00;60.00;;;;;;4968615;28;20173;-90
2023/12/07 07:55:44;;;;;;;4.90;3.80;;;19.30;58.90;;;;;;4984190;28;20175;-90
2023/12/07 07:58:09;;;;;;;4.83;3.10;;;19.40;58.30;;;;;;4977520;28;20330;-90
2023/12/07 08:00:35;;;;;;;5.43;3.40;;;19.20;58.20;;;;;;4963601;28;20612;-89
2023/12/07 08:03:01;;;;;;;5.90;3.53;;;19.20;58.40;;;;;;4969397;28;20185;-90
2023/12/07 08:05:26;;;;;;;6.17;3.37;;;19.00;58.50;;;;;;4983047;28;20287;-89
2023/12/07 08:07:52;;;;;;;4.60;3.70;;;18.50;59.10;;;;;;4971281;28;20189;-90
2023/12/07 08:10:18;;;;;;;3.87;3.43;;;18.30;59.70;;;;;;4982899;28;20177;-90
2023/12/07 08:12:44;;;;;;;5.13;3.93;;;18.00;60.50;;;;;;4978145;28;20180;-89
2023/12/07 08:15:10;;;;;;;4.67;3.53;;;17.70;61.70;;;;;;4980961;28;20181;-90
2023/12/07 08:17:43;;;;;;;4.67;3.30;;;17.40;63.00;;;;;;4979668;28;20184;-89
2023/12/07 08:20:14;;;;;;;6.37;3.73;;;17.10;64.30;;;;;;4980138;28;20227;-89
2023/12/07 08:22:43;;;;;;;4.20;3.63;;;16.90;65.50;;;;;;4984444;28;20168;-89
2023/12/07 08:25:11;;;;;;;5.33;3.83;;;16.70;67.00;;;;;;4980668;28;20211;-89
2023/12/07 08:27:38;;;;;;;3.97;3.33;;;16.40;68.30;;;;;;4984671;28;20646;-89
2023/12/07 08:30:04;;;;;;;4.07;3.67;;;16.20;69.50;;;;;;4979055;28;20192;-89
2023/12/07 08:32:30;;;;;;;8.67;3.80;;;16.10;70.80;;;;;;4984500;28;20186;-89
2023/12/07 08:34:56;;;;;;;4.97;3.37;;;15.90;71.60;;;;;;4977692;28;20185;-89
2023/12/07 08:37:22;;;;;;;3.70;3.40;;;15.80;72.50;;;;;;4968374;28;20507;-89
2023/12/07 08:39:48;;;;;;;5.23;3.43;;;15.70;73.30;;;;;;4976614;28;20278;-89
2023/12/07 08:42:14;;;;;;;3.33;3.03;;;15.60;74.00;;;;;;4966850;28;20185;-90
2023/12/07 08:44:40;;;;;;;5.83;3.47;;;15.60;74.80;;;;;;4977673;28;20176;-89
2023/12/07 08:47:06;;;;;;;5.27;3.63;;;15.50;75.10;;;;;;4966402;28;20174;-89
2023/12/07 08:49:32;;;;;;;4.17;3.50;;;15.50;75.60;;;;;;4959817;28;20174;-89
2023/12/07 08:51:58;;;;;;;3.93;3.40;;;15.40;76.00;;;;;;4964090;28;20318;-89
2023/12/07 08:54:24;;;;;;;3.30;2.97;;;15.40;76.30;;;;;;4974437;28;20181;-90
2023/12/07 08:56:51;;;;;;;3.40;3.03;;;15.40;76.70;;;;;;4961709;28;20172;-90
2023/12/07 08:59:17;;;;;;;5.37;3.63;;;15.30;77.70;;;;;;4968369;28;20236;-89
2023/12/07 09:01:42;;;;;;;5.20;3.33;;;15.20;78.80;;;;;;4968106;28;20544;-90
2023/12/07 09:04:08;;;;;;;4.00;3.03;;;15.10;79.60;;;;;;4968604;28;20174;-90
2023/12/07 09:06:36;;;;;;;4.17;3.60;;;15.20;79.70;;;;;;4973891;28;20191;-90
2023/12/07 09:09:04;;;;;;;4.93;3.10;;;15.30;79.50;;;;;;4973177;28;20167;-90
2023/12/07 09:11:30;;;;;;;5.23;3.63;;;15.50;78.50;;;;;;4972469;28;20215;-90
2023/12/07 09:13:57;;;;;;;4.03;3.30;;;15.80;76.90;;;;;;4964159;28;20182;-90
2023/12/07 09:16:26;;;;;;;4.40;3.87;;;16.20;74.60;;;;;;4983096;28;20175;-90
2023/12/07 09:18:52;;;;;;;3.97;3.57;;;16.40;72.80;;;;;;4980326;28;20460;-90
2023/12/07 09:21:18;;;;;;;4.07;3.67;;;16.80;70.70;;;;;;4975347;28;20485;-90
2023/12/07 09:23:44;;;;;;;4.40;4.00;;;16.90;69.40;;;;;;4964751;28;20175;-90
2023/12/07 09:26:10;;;;;;;4.73;3.90;;;16.90;68.80;;;;;;4977257;28;20544;-90
2023/12/07 09:28:36;;;;;;;5.50;3.80;;;17.10;67.80;;;;;;4966381;28;20233;-90
2023/12/07 09:31:02;;;;;;;4.93;4.00;;;17.00;67.60;;;;;;4972112;28;20241;-90
2023/12/07 09:33:28;;;;;;;5.57;4.50;;;16.90;68.10;;;;;;4985877;28;20291;-90
2023/12/07 09:35:54;;;;;;;5.83;4.63;;;16.80;68.30;;;;;;4973747;28;20308;-90
2023/12/07 09:38:20;;;;;;;5.30;4.30;;;16.60;69.10;;;;;;4981786;28;20352;-90
2023/12/07 09:40:46;;;;;;;4.87;4.37;;;16.50;69.90;;;;;;4975876;28;20298;-91
2023/12/07 09:43:12;;;;;;;6.00;4.50;;;16.40;70.00;;;;;;4980167;28;20256;-91
2023/12/07 09:45:38;;;;;;;5.30;4.27;;;16.50;70.20;;;;;;4980213;28;20212;-91
2023/12/07 09:48:04;;;;;;;4.90;4.40;;;16.40;70.50;;;;;;4984318;28;20190;-90
2023/12/07 09:50:30;;;;;;;5.33;4.40;;;16.40;70.70;;;;;;4981999;28;20260;-91
2023/12/07 09:52:58;;;;;;;4.63;4.10;;;16.30;70.80;;;;;;4976988;28;20178;-91
2023/12/07 09:55:24;;;;;;;4.87;4.37;;;16.30;71.50;;;;;;4982817;28;20238;-92
2023/12/07 09:57:51;;;;;;;4.63;4.20;;;16.30;71.40;;;;;;4972588;28;20171;-92
2023/12/07 10:00:17;;;;;;;6.23;4.40;;;16.30;71.50;;;;;;4982782;28;20205;-91
2023/12/07 10:02:45;;;;;;;5.37;3.90;;;16.30;72.10;;;;;;4968030;28;20470;-92
2023/12/07 10:05:16;;;;;;;4.97;4.20;;;16.10;71.70;;;;;;4968973;28;20245;-92
2023/12/07 10:07:54;;;;;;;6.77;4.50;;;15.90;72.60;;;;;;4983244;28;20170;-91
2023/12/07 10:10:20;;;;;;;4.77;3.80;;;15.70;73.50;;;;;;4990522;28;20178;-91
2023/12/07 10:12:47;;;;;;;4.83;3.70;;;15.70;74.20;;;;;;4990503;28;20236;-91
2023/12/07 10:15:15;;;;;;;6.07;4.17;;;15.60;75.00;;;;;;4989264;28;20225;-91
2023/12/07 10:17:56;;;;;;;4.40;3.70;;;15.60;75.40;;;;;;4967601;28;20171;-91
2023/12/07 10:20:24;;;;;;;5.77;3.70;;;15.50;75.80;;;;;;4980820;28;20521;-91
2023/12/07 10:23:11;;;;;;;5.17;3.83;;;15.50;76.10;;;;;;4970577;28;20174;-92
2023/12/07 10:25:42;;;;;;;4.50;3.60;;;15.40;76.60;;;;;;4984869;28;20269;-92
2023/12/07 10:28:11;;;;;;;5.50;3.77;;;15.40;77.10;;;;;;4974450;28;20169;-92
2023/12/07 10:30:41;;;;;;;4.80;3.07;;;15.30;78.40;;;;;;4987518;28;20218;-92
2023/12/07 10:33:07;;;;;;;5.07;3.67;;;15.20;78.50;;;;;;4980145;28;20205;-91
2023/12/07 10:35:38;;;;;;;4.07;3.43;;;15.20;79.10;;;;;;4965519;28;20175;-91
2023/12/07 10:38:04;;;;;;;4.67;3.43;;;15.20;79.40;;;;;;4978474;28;20340;-92
2023/12/07 10:40:30;;;;;;;5.07;3.43;;;15.30;79.30;;;;;;4964487;28;20202;-92
2023/12/07 10:42:58;;;;;;;4.60;3.10;;;15.40;78.90;;;;;;4968846;28;20203;-91
2023/12/07 10:45:30;;;;;;;3.37;3.07;;;15.50;78.30;;;;;;4982468;28;20182;-91
2023/12/07 10:48:11;;;;;;;4.47;2.87;;;15.60;77.40;;;;;;4981566;28;20238;-91
2023/12/07 10:50:47;;;;;;;3.97;3.00;;;15.80;76.40;;;;;;4966626;28;20293;-92
2023/12/07 10:53:27;;;;;;;3.57;2.97;;;16.10;75.10;;;;;;4966832;28;20221;-92
2023/12/07 10:55:56;;;;;;;4.63;3.00;;;16.20;74.00;;;;;;4982097;28;20394;-91
2023/12/07 10:58:25;;;;;;;4.17;2.80;;;16.30;73.30;;;;;;4973702;28;20179;-92
2023/12/07 11:00:52;;;;;;;4.30;2.70;;;16.30;72.70;;;;;;4979984;28;20412;-91
2023/12/07 11:03:18;;;;;;;3.37;2.90;;;16.30;72.70;;;;;;4977109;28;20178;-91
2023/12/07 11:05:46;;;;;;;4.37;3.20;;;16.20;73.00;;;;;;4977033;28;20201;-91
2023/12/07 11:08:26;;;;;;;4.37;2.67;;;16.10;73.60;;;;;;4977473;28;20253;-91
2023/12/07 11:11:29;;;;;;;3.23;2.93;;;16.00;74.00;;;;;;4981874;28;20836;-92
2023/12/07 11:14:11;;;;;;;3.03;2.50;;;16.00;74.30;;;;;;4985978;28;20179;-92
2023/12/07 11:16:42;;;;;;;3.57;3.00;;;15.90;74.60;;;;;;4984678;28;20183;-91
2023/12/07 11:19:32;;;;;;;3.23;2.60;;;15.90;74.90;;;;;;4974490;28;20209;-91
2023/12/07 11:22:03;;;;;;;4.17;3.03;;;15.90;75.20;;;;;;4968758;28;20207;-92
2023/12/07 11:24:28;;;;;;;3.80;2.90;;;15.90;75.00;;;;;;4970695;28;20175;-91
2023/12/07 11:26:58;;;;;;;3.30;2.90;;;15.80;75.30;;;;;;4969047;28;20327;-92
2023/12/07 11:29:25;;;;;;;3.00;2.70;;;15.90;75.30;;;;;;4981033;28;20184;-92
2023/12/07 11:31:52;;;;;;;3.50;2.70;;;15.80;75.20;;;;;;4995641;28;20197;-92
2023/12/07 11:34:41;;;;;;;2.87;2.47;;;15.80;75.40;;;;;;4984901;28;20191;-91
2023/12/07 11:37:08;;;;;;;3.10;2.47;;;15.70;75.50;;;;;;4987095;28;20182;-91
2023/12/07 11:39:39;;;;;;;3.17;2.80;;;15.80;75.60;;;;;;4984301;28;20186;-92
2023/12/07 11:42:12;;;;;;;3.00;2.60;;;15.70;75.80;;;;;;4987434;28;20599;-91
2023/12/07 11:44:39;;;;;;;3.00;2.70;;;15.70;76.00;;;;;;4985071;28;20344;-91
2023/12/07 11:47:06;;;;;;;3.07;2.40;;;15.60;76.20;;;;;;4976724;28;20269;-91
2023/12/07 11:49:32;;;;;;;2.87;2.30;;;15.60;76.40;;;;;;4973263;28;20456;-92
2023/12/07 11:52:11;;;;;;;3.07;2.37;;;15.50;76.70;;;;;;4975863;28;20197;-91
2023/12/07 11:54:37;;;;;;;3.53;2.50;;;15.50;77.10;;;;;;4975765;28;20181;-92
2023/12/07 11:57:06;;;;;;;3.43;2.40;;;15.40;77.50;;;;;;4988325;28;20285;-92
2023/12/07 11:59:33;;;;;;;3.90;2.43;;;15.40;77.80;;;;;;4983154;28;20178;-92
2023/12/07 12:02:02;;;;;;;3.43;2.20;;;15.40;78.40;;;;;;4986480;28;20232;-92
2023/12/07 12:04:28;;;;;;;2.65;2.40;;;15.20;79.20;;;;;;4984145;28;20386;-91
2023/12/07 12:06:54;;;;;;;2.63;2.40;;;15.10;80.20;;;;;;4975060;28;20747;-92
2023/12/07 12:09:20;;;;;;;2.70;2.50;;;15.00;80.90;;;;;;4981711;28;20174;-91
2023/12/07 12:11:47;;;;;;;2.47;2.20;;;15.10;81.10;;;;;;4977414;28;20193;-92
2023/12/07 12:14:17;;;;;;;2.90;2.43;;;15.20;80.90;;;;;;4965861;28;20402;-91
2023/12/07 12:16:44;;;;;;;2.93;2.33;;;15.30;80.10;;;;;;4973721;28;20342;-91
2023/12/07 12:19:10;;;;;;;5.23;2.63;;;15.40;79.50;;;;;;4962820;28;20364;-92
2023/12/07 12:21:40;;;;;;;3.00;2.37;;;15.60;78.50;;;;;;4969194;28;20385;-92
2023/12/07 12:24:08;;;;;;;2.50;2.30;;;15.80;77.10;;;;;;4984248;28;20284;-93
2023/12/07 12:26:36;;;;;;;2.60;2.10;;;16.20;75.10;;;;;;4978460;28;20177;-92
2023/12/07 12:29:03;;;;;;;3.17;2.20;;;16.40;73.30;;;;;;4983274;28;20267;-92
2023/12/07 12:31:29;;;;;;;3.00;2.20;;;16.70;71.60;;;;;;4974382;28;20212;-91
2023/12/07 12:33:55;;;;;;;2.60;2.40;;;16.70;71.00;;;;;;4981292;28;20194;-92
2023/12/07 12:36:23;;;;;;;3.90;2.40;;;16.80;70.50;;;;;;4977884;28;20270;-92
2023/12/07 12:38:52;;;;;;;3.47;2.40;;;16.70;70.50;;;;;;4979069;28;20300;-92
2023/12/07 12:41:22;;;;;;;3.07;2.40;;;16.60;71.20;;;;;;4984416;28;20506;-91
2023/12/07 12:43:49;;;;;;;2.80;2.50;;;16.70;70.70;;;;;;4984920;28;20230;-91
2023/12/07 12:46:16;;;;;;;3.33;2.20;;;16.70;70.40;;;;;;4980857;28;20281;-91
2023/12/07 12:49:00;;;;;;;2.40;2.20;;;16.60;70.60;;;;;;4976279;28;20181;-91